createdAt,value
2018-06-09T00:00:57.570Z,75.82
2018-06-09T00:03:27.217Z,75.88
2018-06-09T00:05:56.879Z,75.82
2018-06-09T00:08:26.590Z,74.94
2018-06-09T00:10:56.232Z,75.22
2018-06-09T00:13:25.896Z,75.58
2018-06-09T00:15:55.601Z,75.14
2018-06-09T00:18:25.268Z,76.11
2018-06-09T00:20:54.945Z,75.08
2018-06-09T00:23:24.667Z,76.31
2018-06-09T00:25:54.323Z,75.79
2018-06-09T00:28:24.002Z,75.80
2018-06-09T00:30:53.697Z,75.35
2018-06-09T00:33:23.357Z,76.66
2018-06-09T00:35:53.100Z,75.58
2018-06-09T00:38:22.738Z,76.19
2018-06-09T00:40:52.413Z,75.79
2018-06-09T00:43:22.083Z,77.37
2018-06-09T00:45:51.716Z,76.94
2018-06-09T00:48:21.452Z,77.32
2018-06-09T00:50:51.112Z,76.73
2018-06-09T00:53:20.777Z,76.90
2018-06-09T00:55:50.542Z,77.50
2018-06-09T00:58:20.180Z,77.18
2018-06-09T01:00:49.836Z,77.45
2018-06-09T01:03:19.580Z,77.63
2018-06-09T01:05:49.244Z,77.24
2018-06-09T01:08:19.855Z,77.12
2018-06-09T01:10:49.518Z,77.13
2018-06-09T01:13:19.220Z,77.90
2018-06-09T01:15:48.872Z,77.07
2018-06-09T01:18:18.528Z,77.66
2018-06-09T01:20:48.221Z,77.28
2018-06-09T01:23:17.875Z,77.35
2018-06-09T01:25:47.557Z,78.22
2018-06-09T01:28:17.464Z,79.74
2018-06-09T01:30:47.153Z,79.71
2018-06-09T01:33:16.805Z,79.48
2018-06-09T01:35:46.535Z,79.02
2018-06-09T01:38:16.211Z,79.06
2018-06-09T01:40:45.870Z,78.57
2018-06-09T01:43:15.584Z,77.93
2018-06-09T01:45:46.176Z,78.62
2018-06-09T01:48:15.883Z,78.13
2018-06-09T01:50:45.536Z,78.05
2018-06-09T01:53:15.248Z,78.08
2018-06-09T01:55:44.876Z,78.09
2018-06-09T01:58:14.563Z,78.51
2018-06-09T02:00:44.340Z,77.47
2018-06-09T02:03:14.015Z,77.78
2018-06-09T02:05:43.698Z,78.81
2018-06-09T02:08:13.380Z,78.75
2018-06-09T02:10:43.048Z,78.30
2018-06-09T02:13:12.757Z,78.22
2018-06-09T02:15:42.444Z,78.73
2018-06-09T02:18:12.147Z,78.34
2018-06-09T02:20:41.836Z,78.65
2018-06-09T02:23:11.509Z,78.40
2018-06-09T02:25:41.212Z,78.61
2018-06-09T02:28:10.986Z,78.32
2018-06-09T02:30:40.656Z,77.90
2018-06-09T02:33:10.353Z,79.07
2018-06-09T02:35:40.026Z,78.73
2018-06-09T02:38:09.695Z,78.39
2018-06-09T02:40:39.474Z,78.91
2018-06-09T02:43:09.128Z,78.16
2018-06-09T02:45:38.785Z,79.60
2018-06-09T02:48:08.483Z,80.54
2018-06-09T02:50:38.155Z,79.75
2018-06-09T02:53:08.169Z,79.19
2018-06-09T02:55:37.841Z,79.13
2018-06-09T02:58:07.525Z,78.68
2018-06-09T03:00:37.216Z,79.16
2018-06-09T03:03:06.960Z,79.86
2018-06-09T03:05:36.645Z,78.74
2018-06-09T03:08:06.324Z,79.72
2018-06-09T03:10:35.988Z,79.98
2018-06-09T03:13:05.692Z,79.83
2018-06-09T03:15:35.427Z,79.70
2018-06-09T03:18:05.103Z,79.21
2018-06-09T03:20:34.771Z,79.45
2018-06-09T03:23:04.464Z,80.63
2018-06-09T03:25:34.123Z,81.61
2018-06-09T03:28:03.808Z,81.45
2018-06-09T03:30:33.496Z,82.00
2018-06-09T03:33:03.180Z,81.61
2018-06-09T03:35:32.853Z,80.44
2018-06-09T03:38:02.567Z,80.01
2018-06-09T03:40:32.248Z,79.86
2018-06-09T03:43:02.321Z,78.83
2018-06-09T03:45:31.992Z,79.88
2018-06-09T03:48:01.653Z,80.24
2018-06-09T03:50:31.356Z,78.75
2018-06-09T03:53:01.008Z,79.57
2018-06-09T03:55:30.663Z,78.93
2018-06-09T03:58:00.363Z,79.33
2018-06-09T04:00:30.009Z,79.48
2018-06-09T04:02:59.680Z,80.39
2018-06-09T04:05:29.384Z,79.94
2018-06-09T04:07:59.035Z,80.79
2018-06-09T04:10:28.704Z,80.35
2018-06-09T04:12:58.403Z,80.31
2018-06-09T04:15:28.055Z,79.38
2018-06-09T04:17:57.732Z,79.36
2018-06-09T04:20:27.469Z,80.07
2018-06-09T04:22:57.148Z,79.92
2018-06-09T04:25:26.810Z,79.37
2018-06-09T04:27:56.540Z,79.65
2018-06-09T04:30:26.199Z,80.47
2018-06-09T04:32:55.862Z,79.95
2018-06-09T04:35:25.567Z,79.56
2018-06-09T04:37:55.239Z,79.46
2018-06-09T04:40:24.888Z,79.52
2018-06-09T04:42:54.576Z,79.37
2018-06-09T04:45:24.232Z,78.83
2018-06-09T04:47:53.871Z,79.64
2018-06-09T04:50:23.604Z,79.95
2018-06-09T04:52:53.285Z,79.38
2018-06-09T04:55:22.964Z,78.44
2018-06-09T04:57:52.677Z,78.50
2018-06-09T05:00:22.308Z,78.35
2018-06-09T05:02:51.907Z,79.43
2018-06-09T05:05:21.580Z,79.36
2018-06-09T05:07:51.223Z,78.63
2018-06-09T05:10:20.864Z,79.37
2018-06-09T05:12:50.571Z,78.66
2018-06-09T05:15:20.215Z,79.42
2018-06-09T05:17:49.855Z,79.13
2018-06-09T05:20:19.548Z,77.24
2018-06-09T05:22:49.180Z,77.15
2018-06-09T05:25:18.832Z,77.39
2018-06-09T05:27:48.523Z,77.24
2018-06-09T05:30:18.172Z,76.79
2018-06-09T05:32:47.797Z,76.91
2018-06-09T05:35:17.521Z,76.97
2018-06-09T05:37:47.163Z,76.77
2018-06-09T05:40:16.824Z,76.29
2018-06-09T05:42:46.521Z,75.88
2018-06-09T05:45:16.210Z,76.07
2018-06-09T05:47:45.861Z,75.58
2018-06-09T05:50:15.594Z,75.62
2018-06-09T05:52:45.252Z,75.42
2018-06-09T05:55:14.900Z,74.30
2018-06-09T05:57:44.588Z,74.95
2018-06-09T06:00:14.243Z,74.56
2018-06-09T06:02:43.883Z,74.19
2018-06-09T06:05:13.572Z,73.68
2018-06-09T06:07:43.207Z,73.07
2018-06-09T06:10:12.892Z,73.64
2018-06-09T06:12:42.561Z,72.09
2018-06-09T06:15:12.212Z,72.83
2018-06-09T06:17:41.820Z,72.46
2018-06-09T06:20:11.516Z,70.50
2018-06-09T06:22:41.160Z,70.92
2018-06-09T06:25:10.844Z,71.34
2018-06-09T06:27:40.524Z,70.02
2018-06-09T06:30:10.184Z,70.17
2018-06-09T06:32:39.826Z,68.01
2018-06-09T06:35:09.585Z,68.41
2018-06-09T06:37:39.236Z,68.69
2018-06-09T06:40:08.887Z,63.82
2018-06-09T06:42:38.644Z,58.44
2018-06-09T06:45:08.259Z,59.39
2018-06-09T06:47:37.898Z,60.57
2018-06-09T06:50:07.615Z,59.11
2018-06-09T06:52:37.243Z,54.44
2018-06-09T06:55:06.973Z,55.85
2018-06-09T06:57:36.713Z,58.75
2018-06-09T07:00:06.376Z,58.25
2018-06-09T07:02:36.141Z,56.46
2018-06-09T07:05:05.812Z,56.63
2018-06-09T07:07:35.549Z,56.22
2018-06-09T07:10:05.235Z,49.92
2018-06-09T07:12:35.405Z,52.29
2018-06-09T07:15:05.231Z,54.82
2018-06-09T07:17:34.946Z,55.28
2018-06-09T07:20:04.688Z,55.28
2018-06-09T07:22:34.379Z,57.00
2018-06-09T07:25:04.153Z,53.53
2018-06-09T07:27:33.820Z,53.54
2018-06-09T07:30:03.697Z,54.31
2018-06-09T07:32:33.449Z,56.39
2018-06-09T07:35:03.199Z,53.25
2018-06-09T07:37:32.883Z,51.58
2018-06-09T07:40:02.635Z,52.52
2018-06-09T07:42:32.402Z,52.42
2018-06-09T07:45:02.176Z,53.09
2018-06-09T07:47:31.796Z,51.61
2018-06-09T07:50:01.534Z,50.40
2018-06-09T07:52:31.210Z,50.00
2018-06-09T07:55:00.876Z,50.19
2018-06-09T07:57:30.608Z,51.83
2018-06-09T08:00:00.271Z,52.06
2018-06-09T08:02:30.090Z,52.55
2018-06-09T08:07:20.800Z,56.68
2018-06-09T08:09:50.612Z,57.46
2018-06-09T08:12:20.280Z,56.35
2018-06-09T08:14:49.991Z,56.77
2018-06-09T08:17:19.697Z,57.24
2018-06-09T08:19:49.372Z,56.41
2018-06-09T08:22:19.077Z,57.23
2018-06-09T08:24:48.756Z,58.10
2018-06-09T08:27:18.408Z,58.77
2018-06-09T08:29:48.117Z,58.81
2018-06-09T08:32:17.812Z,59.43
2018-06-09T08:34:47.490Z,60.67
2018-06-09T08:37:17.212Z,59.69
2018-06-09T08:39:46.892Z,60.10
2018-06-09T08:42:16.609Z,59.07
2018-06-09T08:44:46.428Z,58.21
2018-06-09T08:47:16.177Z,57.28
2018-06-09T08:49:45.843Z,56.81
2018-06-09T08:52:15.578Z,56.52
2018-06-09T08:54:45.320Z,56.37
2018-06-09T08:57:15.079Z,56.48
2018-06-09T08:59:44.740Z,57.39
2018-06-09T09:02:14.407Z,56.83
2018-06-09T09:04:44.140Z,55.70
2018-06-09T09:07:14.013Z,55.27
2018-06-09T09:09:43.748Z,53.75
2018-06-09T09:12:13.505Z,53.94
2018-06-09T09:14:43.206Z,52.52
2018-06-09T09:17:12.889Z,52.23
2018-06-09T09:19:42.644Z,51.83
2018-06-09T09:22:12.306Z,52.70
2018-06-09T09:24:41.979Z,51.16
2018-06-09T09:27:11.692Z,53.27
2018-06-09T09:29:41.516Z,51.75
2018-06-09T09:32:11.257Z,51.61
2018-06-09T09:34:41.012Z,51.93
2018-06-09T09:37:10.679Z,50.97
2018-06-09T09:39:40.376Z,51.50
2018-06-09T09:42:10.110Z,51.50
2018-06-09T09:44:39.756Z,51.58
2018-06-09T09:47:09.604Z,52.64
2018-06-09T09:49:39.252Z,50.63
2018-06-09T09:52:09.147Z,51.17
2018-06-09T09:54:40.368Z,50.21
2018-06-09T09:57:10.068Z,50.56
2018-06-09T09:59:39.737Z,49.01
2018-06-09T10:02:09.456Z,49.98
2018-06-09T10:04:39.195Z,47.89
2018-06-09T10:07:08.861Z,47.94
2018-06-09T10:09:38.584Z,47.53
2018-06-09T10:12:08.284Z,48.19
2018-06-09T10:14:37.913Z,48.13
2018-06-09T10:17:07.573Z,47.95
2018-06-09T10:19:37.271Z,47.39
2018-06-09T10:22:07.506Z,47.47
2018-06-09T10:24:37.222Z,47.29
2018-06-09T10:27:06.902Z,50.33
2018-06-09T10:29:36.569Z,47.74
2018-06-09T10:32:06.341Z,46.15
2018-06-09T10:34:36.001Z,47.28
2018-06-09T10:37:05.669Z,46.27
2018-06-09T10:39:36.027Z,47.00
2018-06-09T10:42:05.725Z,46.27
2018-06-09T10:44:35.445Z,45.97
2018-06-09T10:47:05.174Z,46.89
2018-06-09T10:49:34.859Z,46.85
2018-06-09T10:52:04.554Z,45.13
2018-06-09T10:54:34.268Z,45.69
2018-06-09T10:57:03.960Z,45.02
2018-06-09T10:59:33.652Z,45.28
2018-06-09T11:02:03.429Z,45.85
2018-06-09T11:04:33.108Z,44.89
2018-06-09T11:07:02.764Z,46.83
2018-06-09T11:09:32.468Z,45.25
2018-06-09T11:12:02.118Z,44.65
2018-06-09T11:14:31.780Z,44.74
2018-06-09T11:17:01.472Z,45.25
2018-06-09T11:19:31.132Z,44.42
2018-06-09T11:22:00.787Z,46.01
2018-06-09T11:24:30.592Z,45.19
2018-06-09T11:27:00.268Z,44.29
2018-06-09T11:29:29.926Z,44.76
2018-06-09T11:31:59.615Z,43.67
2018-06-09T11:34:29.272Z,45.19
2018-06-09T11:36:58.931Z,44.77
2018-06-09T11:39:28.641Z,44.24
2018-06-09T11:41:58.299Z,43.84
2018-06-09T11:44:27.971Z,43.94
2018-06-09T11:46:57.727Z,44.89
2018-06-09T11:49:27.385Z,44.13
2018-06-09T11:51:57.080Z,42.95
2018-06-09T11:54:26.815Z,42.51
2018-06-09T11:56:56.660Z,42.69
2018-06-09T11:59:26.396Z,42.40
2018-06-09T12:01:56.064Z,42.29
2018-06-09T12:04:25.732Z,42.82
2018-06-09T12:06:55.444Z,41.58
2018-06-09T12:09:25.107Z,41.16
2018-06-09T12:12:01.121Z,41.18
2018-06-09T12:14:30.764Z,40.01
2018-06-09T12:17:00.419Z,40.97
2018-06-09T12:19:30.121Z,40.29
2018-06-09T12:21:59.751Z,40.55
2018-06-09T12:24:29.412Z,39.90
2018-06-09T12:26:59.096Z,42.15
2018-06-09T12:29:28.739Z,42.68
2018-06-09T12:31:58.386Z,39.66
2018-06-09T12:34:28.079Z,42.51
2018-06-09T12:36:57.710Z,40.53
2018-06-09T12:39:27.367Z,39.56
2018-06-09T12:41:57.068Z,40.91
2018-06-09T12:44:26.728Z,41.21
2018-06-09T12:46:56.388Z,39.38
2018-06-09T12:49:26.630Z,39.63
2018-06-09T12:51:56.273Z,40.29
2018-06-09T12:54:25.923Z,40.93
2018-06-09T12:56:55.632Z,39.46
2018-06-09T12:59:25.256Z,40.11
2018-06-09T13:01:54.885Z,40.37
2018-06-09T13:04:24.583Z,39.15
2018-06-09T13:06:54.207Z,38.68
2018-06-09T13:09:23.836Z,39.51
2018-06-09T13:11:53.499Z,38.21
2018-06-09T13:14:23.127Z,39.84
2018-06-09T13:16:52.756Z,37.67
2018-06-09T13:19:22.440Z,38.64
2018-06-09T13:21:52.068Z,37.55
2018-06-09T13:24:21.708Z,37.09
2018-06-09T13:26:51.408Z,36.76
2018-06-09T13:29:21.036Z,36.04
2018-06-09T13:31:50.685Z,36.55
2018-06-09T13:34:20.403Z,38.60
2018-06-09T13:36:50.055Z,38.30
2018-06-09T13:39:19.700Z,38.58
2018-06-09T13:41:49.379Z,38.00
2018-06-09T13:44:19.043Z,37.26
2018-06-09T13:46:48.714Z,36.66
2018-06-09T13:49:18.424Z,36.94
2018-06-09T13:51:48.246Z,37.62
2018-06-09T13:54:17.898Z,38.31
2018-06-09T13:56:47.603Z,37.18
2018-06-09T13:59:17.243Z,36.42
2018-06-09T14:01:46.888Z,35.54
2018-06-09T14:04:16.604Z,35.72
2018-06-09T14:06:46.297Z,36.72
2018-06-09T14:09:15.979Z,36.51
2018-06-09T14:11:45.668Z,36.49
2018-06-09T14:14:15.321Z,36.16
2018-06-09T14:16:44.969Z,35.89
2018-06-09T14:19:14.678Z,37.38
2018-06-09T14:21:44.352Z,36.70
2018-06-09T14:24:14.080Z,35.97
2018-06-09T14:26:43.756Z,38.87
2018-06-09T14:29:13.476Z,37.82
2018-06-09T14:31:43.148Z,37.74
2018-06-09T14:34:12.797Z,37.94
2018-06-09T14:36:42.477Z,37.73
2018-06-09T14:39:12.133Z,37.18
2018-06-09T14:41:41.791Z,38.26
2018-06-09T14:44:11.500Z,38.26
2018-06-09T14:46:41.163Z,39.56
2018-06-09T14:49:10.817Z,39.31
2018-06-09T14:51:40.662Z,38.75
2018-06-09T14:54:10.372Z,38.62
2018-06-09T14:56:40.104Z,38.81
2018-06-09T14:59:09.746Z,39.63
2018-06-09T15:01:39.409Z,40.28
2018-06-09T15:04:09.115Z,39.47
2018-06-09T15:06:38.740Z,39.18
2018-06-09T15:09:09.344Z,39.63
2018-06-09T15:11:39.009Z,39.50
2018-06-09T15:14:08.658Z,39.55
2018-06-09T15:16:38.413Z,41.78
2018-06-09T15:19:08.083Z,41.32
2018-06-09T15:21:37.757Z,42.54
2018-06-09T15:24:07.518Z,41.79
2018-06-09T15:26:37.192Z,42.31
2018-06-09T15:29:06.835Z,42.07
2018-06-09T15:31:36.555Z,41.73
2018-06-09T15:34:06.236Z,43.71
2018-06-09T15:36:36.721Z,43.91
2018-06-09T15:39:07.868Z,41.42
2018-06-09T15:41:37.627Z,42.42
2018-06-09T15:44:07.315Z,43.99
2018-06-09T15:46:37.207Z,43.97
2018-06-09T15:49:06.805Z,45.58
2018-06-09T15:51:36.459Z,44.46
2018-06-09T15:54:06.200Z,43.10
2018-06-09T15:56:35.954Z,43.81
2018-06-09T15:59:05.618Z,43.96
2018-06-09T16:01:35.316Z,43.92
2018-06-09T16:04:05.120Z,43.40
2018-06-09T16:06:34.819Z,43.24
2018-06-09T16:09:06.700Z,43.42
2018-06-09T16:11:36.560Z,42.88
2018-06-09T16:14:06.343Z,43.25
2018-06-09T16:16:35.995Z,43.64
2018-06-09T16:19:05.705Z,44.34
2018-06-09T16:21:35.385Z,44.49
2018-06-09T16:24:05.070Z,44.73
2018-06-09T16:26:34.728Z,44.86
2018-06-09T16:29:04.515Z,45.53
2018-06-09T16:31:34.134Z,46.12
2018-06-09T16:34:03.768Z,45.39
2018-06-09T16:36:33.496Z,46.52
2018-06-09T16:39:03.228Z,45.87
2018-06-09T16:41:32.844Z,46.25
2018-06-09T16:44:02.540Z,46.19
2018-06-09T16:46:32.171Z,46.38
2018-06-09T16:49:02.068Z,46.23
2018-06-09T16:51:31.723Z,46.78
2018-06-09T16:54:01.379Z,46.21
2018-06-09T16:56:31.040Z,46.62
2018-06-09T16:59:00.688Z,47.65
2018-06-09T17:01:30.394Z,46.64
2018-06-09T17:04:00.140Z,47.55
2018-06-09T17:06:30.156Z,47.38
2018-06-09T17:08:59.807Z,46.57
2018-06-09T17:11:29.512Z,45.86
2018-06-09T17:13:59.178Z,47.32
2018-06-09T17:16:28.776Z,47.40
2018-06-09T17:18:58.444Z,45.48
2018-06-09T17:21:28.072Z,46.59
2018-06-09T17:23:57.700Z,48.83
2018-06-09T17:26:27.383Z,48.14
2018-06-09T17:28:57.020Z,48.85
2018-06-09T17:31:26.711Z,48.96
2018-06-09T17:33:56.415Z,49.29
2018-06-09T17:36:26.056Z,48.73
2018-06-09T17:38:55.691Z,48.59
2018-06-09T17:41:25.380Z,49.46
2018-06-09T17:43:55.019Z,49.12
2018-06-09T17:46:24.652Z,49.30
2018-06-09T17:48:54.964Z,48.71
2018-06-09T17:51:24.609Z,49.26
2018-06-09T17:53:54.320Z,49.69
2018-06-09T17:56:23.992Z,49.66
2018-06-09T17:58:53.671Z,49.77
2018-06-09T18:01:23.307Z,49.97
2018-06-09T18:03:53.067Z,49.68
2018-06-09T18:06:22.700Z,49.95
2018-06-09T18:08:52.328Z,50.31
2018-06-09T18:11:22.028Z,50.65
2018-06-09T18:13:51.687Z,51.23
2018-06-09T18:16:21.395Z,52.10
2018-06-09T18:18:51.051Z,51.75
2018-06-09T18:21:20.712Z,53.04
2018-06-09T18:23:50.431Z,52.43
2018-06-09T18:26:20.430Z,53.61
2018-06-09T18:28:50.163Z,53.26
2018-06-09T18:31:19.852Z,54.34
2018-06-09T18:33:49.569Z,54.39
2018-06-09T18:36:19.881Z,54.10
2018-06-09T18:38:49.588Z,55.04
2018-06-09T18:41:19.353Z,55.31
2018-06-09T18:43:49.106Z,56.66
2018-06-09T18:46:18.781Z,55.46
2018-06-09T18:48:48.479Z,55.64
2018-06-09T18:51:18.167Z,54.83
2018-06-09T18:53:47.876Z,54.86
2018-06-09T18:56:17.625Z,53.85
2018-06-09T18:58:47.342Z,54.45
2018-06-09T19:01:17.192Z,55.23
2018-06-09T19:03:46.863Z,54.66
2018-06-09T19:06:16.605Z,53.75
2018-06-09T19:08:46.279Z,54.96
2018-06-09T19:11:16.055Z,54.62
2018-06-09T19:13:45.714Z,54.82
2018-06-09T19:16:15.368Z,54.34
2018-06-09T19:18:45.140Z,54.57
2018-06-09T19:21:14.808Z,53.75
2018-06-09T19:23:44.512Z,54.10
2018-06-09T19:26:14.248Z,54.46
2018-06-09T19:28:43.950Z,54.38
2018-06-09T19:31:13.599Z,54.42
2018-06-09T19:33:43.312Z,55.41
2018-06-09T19:36:13.096Z,55.67
2018-06-09T19:38:42.848Z,56.24
2018-06-09T19:41:12.576Z,56.00
2018-06-09T19:43:42.240Z,57.09
2018-06-09T19:46:12.068Z,56.67
2018-06-09T19:48:41.728Z,56.76
2018-06-09T19:51:11.388Z,56.05
2018-06-09T19:53:41.080Z,55.93
2018-06-09T19:56:10.746Z,57.52
2018-06-09T19:58:40.742Z,57.32
2018-06-09T20:01:10.460Z,57.67
2018-06-09T20:03:40.166Z,57.24
2018-06-09T20:06:09.853Z,56.58
2018-06-09T20:08:39.588Z,57.42
2018-06-09T20:11:09.244Z,57.33
2018-06-09T20:13:38.887Z,57.06
2018-06-09T20:16:08.568Z,58.22
2018-06-09T20:18:38.212Z,57.70
2018-06-09T20:21:07.872Z,58.33
2018-06-09T20:23:37.579Z,57.81
2018-06-09T20:26:07.240Z,59.00
2018-06-09T20:28:37.080Z,58.31
2018-06-09T20:31:06.747Z,59.37
2018-06-09T20:33:36.464Z,58.70
2018-06-09T20:36:06.156Z,58.04
2018-06-09T20:38:35.788Z,58.62
2018-06-09T20:41:05.483Z,58.74
2018-06-09T20:43:35.181Z,58.60
2018-06-09T20:46:04.935Z,59.24
2018-06-09T20:48:34.600Z,58.38
2018-06-09T20:51:04.396Z,58.79
2018-06-09T20:53:34.120Z,58.45
2018-06-09T20:56:03.804Z,59.11
2018-06-09T20:58:39.343Z,59.78
2018-06-09T21:01:09.123Z,59.01
2018-06-09T21:03:38.760Z,59.93
2018-06-09T21:06:08.463Z,61.44
2018-06-09T21:08:38.098Z,62.03
2018-06-09T21:11:07.807Z,62.01
2018-06-09T21:13:37.527Z,60.88
2018-06-09T21:16:07.178Z,61.78
2018-06-09T21:18:36.850Z,61.72
2018-06-09T21:21:06.550Z,61.09
2018-06-09T21:23:36.191Z,61.89
2018-06-09T21:26:05.872Z,61.48
2018-06-09T21:28:40.780Z,61.89
2018-06-09T21:31:15.531Z,61.82
2018-06-09T21:34:01.546Z,62.62
2018-06-09T21:36:35.276Z,62.52
2018-06-09T21:39:14.704Z,62.34
2018-06-09T21:41:48.435Z,61.15
2018-06-09T21:44:23.319Z,60.88
2018-06-09T21:46:53.006Z,60.28
2018-06-09T21:49:22.692Z,60.25
2018-06-09T21:51:52.386Z,60.70
2018-06-09T21:54:22.057Z,60.61
2018-06-09T21:56:51.712Z,60.46
2018-06-09T21:59:21.412Z,61.16
2018-06-09T22:01:51.075Z,61.26
2018-06-09T22:04:20.720Z,61.60
2018-06-09T22:06:50.481Z,61.33
2018-06-09T22:09:20.183Z,62.21
2018-06-09T22:11:49.834Z,62.68
2018-06-09T22:14:19.548Z,61.92
2018-06-09T22:16:49.215Z,62.37
2018-06-09T22:19:18.876Z,61.78
2018-06-09T22:21:48.632Z,61.55
2018-06-09T22:24:18.295Z,64.49
2018-06-09T22:26:47.952Z,64.75
2018-06-09T22:29:17.658Z,64.89
2018-06-09T22:31:47.308Z,64.39
2018-06-09T22:34:16.972Z,64.81
2018-06-09T22:36:46.371Z,67.02
2018-06-09T22:39:15.836Z,68.29
2018-06-09T22:41:45.555Z,68.04
2018-06-09T22:44:15.243Z,68.72
2018-06-09T22:46:44.928Z,68.62
2018-06-09T22:49:14.604Z,67.96
2018-06-09T22:51:44.312Z,69.29
2018-06-09T22:54:13.959Z,67.93
2018-06-09T22:56:43.620Z,68.60
2018-06-09T22:59:13.371Z,68.83
2018-06-09T23:01:43.031Z,68.66
2018-06-09T23:04:12.697Z,68.62
2018-06-09T23:06:42.412Z,68.11
2018-06-09T23:09:12.199Z,69.13
2018-06-09T23:11:41.844Z,68.80
2018-06-09T23:14:11.556Z,68.75
2018-06-09T23:16:41.187Z,67.52
2018-06-09T23:19:10.848Z,68.12
2018-06-09T23:21:40.574Z,68.27
2018-06-09T23:24:10.285Z,67.97
2018-06-09T23:26:39.964Z,67.38
2018-06-09T23:29:09.647Z,67.83
2018-06-09T23:31:39.308Z,67.41
2018-06-09T23:34:08.941Z,68.75
2018-06-09T23:36:38.852Z,68.24
2018-06-09T23:39:08.592Z,68.49
2018-06-09T23:41:38.284Z,68.38
2018-06-09T23:44:07.941Z,67.47
2018-06-09T23:46:37.606Z,67.67
2018-06-09T23:49:07.312Z,67.04
2018-06-09T23:51:37.009Z,66.78
2018-06-09T23:54:06.775Z,66.15
2018-06-09T23:56:36.452Z,66.21
2018-06-09T23:59:06.110Z,66.95
